sensor_id;sensor_type;location;lat;lon;timestamp;P1;durP1;ratioP1;P2;durP2;ratioP2
20458;SDS011;10388;52.314;7.938;2022-08-19T00:15:34;8.83;;;6.57;;
20458;SDS011;10388;52.314;7.938;2022-08-19T00:18:19;7.67;;;6.83;;
20458;SDS011;10388;52.314;7.938;2022-08-19T00:21:04;8.37;;;7.57;;
20458;SDS011;10388;52.314;7.938;2022-08-19T00:24:08;8.13;;;6.90;;
20458;SDS011;10388;52.314;7.938;2022-08-19T00:27:02;9.83;;;6.50;;
20458;SDS011;10388;52.314;7.938;2022-08-19T00:30:14;7.30;;;6.50;;
20458;SDS011;10388;52.314;7.938;2022-08-19T00:33:34;7.03;;;6.30;;
20458;SDS011;10388;52.314;7.938;2022-08-19T00:36:33;7.60;;;6.77;;
20458;SDS011;10388;52.314;7.938;2022-08-19T00:42:26;7.83;;;6.17;;
20458;SDS011;10388;52.314;7.938;2022-08-19T00:45:08;8.40;;;6.53;;
20458;SDS011;10388;52.314;7.938;2022-08-19T00:48:20;8.17;;;6.83;;
20458;SDS011;10388;52.314;7.938;2022-08-19T00:51:06;8.67;;;6.60;;
20458;SDS011;10388;52.314;7.938;2022-08-19T00:53:54;7.63;;;6.80;;
20458;SDS011;10388;52.314;7.938;2022-08-19T00:56:37;7.53;;;6.73;;
20458;SDS011;10388;52.314;7.938;2022-08-19T00:59:18;7.73;;;6.93;;
20458;SDS011;10388;52.314;7.938;2022-08-19T01:02:05;9.10;;;6.83;;
20458;SDS011;10388;52.314;7.938;2022-08-19T01:04:57;8.13;;;6.47;;
20458;SDS011;10388;52.314;7.938;2022-08-19T01:15:00;8.30;;;7.40;;
20458;SDS011;10388;52.314;7.938;2022-08-19T01:31:19;7.37;;;6.57;;
20458;SDS011;10388;52.314;7.938;2022-08-19T01:38:03;9.73;;;7.17;;
20458;SDS011;10388;52.314;7.938;2022-08-19T01:41:04;10.23;;;7.70;;
20458;SDS011;10388;52.314;7.938;2022-08-19T01:43:52;9.27;;;7.20;;
20458;SDS011;10388;52.314;7.938;2022-08-19T01:51:06;8.27;;;6.60;;
20458;SDS011;10388;52.314;7.938;2022-08-19T01:57:13;8.83;;;6.97;;
20458;SDS011;10388;52.314;7.938;2022-08-19T01:59:54;7.53;;;6.77;;
20458;SDS011;10388;52.314;7.938;2022-08-19T02:02:45;8.17;;;7.37;;
20458;SDS011;10388;52.314;7.938;2022-08-19T02:08:44;8.00;;;6.80;;
20458;SDS011;10388;52.314;7.938;2022-08-19T02:11:46;8.30;;;6.70;;
20458;SDS011;10388;52.314;7.938;2022-08-19T02:14:53;8.90;;;7.10;;
20458;SDS011;10388;52.314;7.938;2022-08-19T02:18:08;7.97;;;7.00;;
20458;SDS011;10388;52.314;7.938;2022-08-19T02:21:20;9.40;;;7.33;;
20458;SDS011;10388;52.314;7.938;2022-08-19T02:24:37;9.20;;;7.27;;
20458;SDS011;10388;52.314;7.938;2022-08-19T02:28:08;8.37;;;6.50;;
20458;SDS011;10388;52.314;7.938;2022-08-19T02:31:01;7.17;;;6.37;;
20458;SDS011;10388;52.314;7.938;2022-08-19T02:33:55;7.77;;;6.23;;
20458;SDS011;10388;52.314;7.938;2022-08-19T02:36:33;7.30;;;6.60;;
20458;SDS011;10388;52.314;7.938;2022-08-19T02:39:24;7.93;;;6.60;;
20458;SDS011;10388;52.314;7.938;2022-08-19T02:45:50;9.43;;;6.97;;
20458;SDS011;10388;52.314;7.938;2022-08-19T02:51:34;9.63;;;6.87;;
20458;SDS011;10388;52.314;7.938;2022-08-19T02:54:53;8.23;;;7.43;;
20458;SDS011;10388;52.314;7.938;2022-08-19T02:57:56;9.10;;;7.67;;
20458;SDS011;10388;52.314;7.938;2022-08-19T03:00:58;8.13;;;7.07;;
20458;SDS011;10388;52.314;7.938;2022-08-19T03:07:22;8.77;;;6.83;;
20458;SDS011;10388;52.314;7.938;2022-08-19T03:10:08;7.70;;;6.90;;
20458;SDS011;10388;52.314;7.938;2022-08-19T03:13:15;10.47;;;7.67;;
20458;SDS011;10388;52.314;7.938;2022-08-19T03:16:29;8.67;;;6.23;;
20458;SDS011;10388;52.314;7.938;2022-08-19T03:23:01;7.30;;;6.33;;
20458;SDS011;10388;52.314;7.938;2022-08-19T03:25:48;7.23;;;6.53;;
20458;SDS011;10388;52.314;7.938;2022-08-19T03:28:37;8.30;;;6.40;;
20458;SDS011;10388;52.314;7.938;2022-08-19T03:31:45;9.03;;;5.77;;
20458;SDS011;10388;52.314;7.938;2022-08-19T03:41:23;6.90;;;5.77;;
20458;SDS011;10388;52.314;7.938;2022-08-19T03:44:36;7.27;;;6.27;;
20458;SDS011;10388;52.314;7.938;2022-08-19T03:51:03;9.07;;;7.07;;
20458;SDS011;10388;52.314;7.938;2022-08-19T03:54:09;10.50;;;7.37;;
20458;SDS011;10388;52.314;7.938;2022-08-19T04:03:55;9.40;;;7.10;;
20458;SDS011;10388;52.314;7.938;2022-08-19T04:06:51;9.63;;;7.60;;
20458;SDS011;10388;52.314;7.938;2022-08-19T04:09:22;10.63;;;7.43;;
20458;SDS011;10388;52.314;7.938;2022-08-19T04:11:54;10.57;;;7.97;;
20458;SDS011;10388;52.314;7.938;2022-08-19T04:14:27;9.77;;;8.10;;
20458;SDS011;10388;52.314;7.938;2022-08-19T04:17:00;9.43;;;7.40;;
20458;SDS011;10388;52.314;7.938;2022-08-19T04:19:33;10.87;;;8.33;;
20458;SDS011;10388;52.314;7.938;2022-08-19T04:22:05;11.53;;;8.83;;
20458;SDS011;10388;52.314;7.938;2022-08-19T04:24:37;10.50;;;8.87;;
20458;SDS011;10388;52.314;7.938;2022-08-19T04:27:07;9.93;;;7.80;;
20458;SDS011;10388;52.314;7.938;2022-08-19T04:29:38;9.70;;;7.77;;
20458;SDS011;10388;52.314;7.938;2022-08-19T04:32:10;9.30;;;8.30;;
20458;SDS011;10388;52.314;7.938;2022-08-19T04:34:40;10.60;;;8.07;;
20458;SDS011;10388;52.314;7.938;2022-08-19T04:37:12;8.90;;;7.70;;
20458;SDS011;10388;52.314;7.938;2022-08-19T04:39:43;9.77;;;8.03;;
20458;SDS011;10388;52.314;7.938;2022-08-19T04:42:33;13.67;;;8.23;;
20458;SDS011;10388;52.314;7.938;2022-08-19T04:45:11;11.53;;;8.37;;
20458;SDS011;10388;52.314;7.938;2022-08-19T04:47:43;9.37;;;8.37;;
20458;SDS011;10388;52.314;7.938;2022-08-19T04:50:14;11.83;;;7.80;;
20458;SDS011;10388;52.314;7.938;2022-08-19T04:52:45;10.00;;;8.50;;
20458;SDS011;10388;52.314;7.938;2022-08-19T04:55:16;9.60;;;7.87;;
20458;SDS011;10388;52.314;7.938;2022-08-19T04:57:47;9.63;;;8.03;;
20458;SDS011;10388;52.314;7.938;2022-08-19T05:00:18;8.80;;;7.90;;
20458;SDS011;10388;52.314;7.938;2022-08-19T05:02:49;9.90;;;7.77;;
20458;SDS011;10388;52.314;7.938;2022-08-19T05:05:19;9.73;;;7.83;;
20458;SDS011;10388;52.314;7.938;2022-08-19T05:07:50;12.53;;;8.80;;
20458;SDS011;10388;52.314;7.938;2022-08-19T05:10:21;8.40;;;7.40;;
20458;SDS011;10388;52.314;7.938;2022-08-19T05:12:51;9.40;;;8.10;;
20458;SDS011;10388;52.314;7.938;2022-08-19T05:15:22;9.27;;;7.63;;
20458;SDS011;10388;52.314;7.938;2022-08-19T05:17:52;11.93;;;8.00;;
20458;SDS011;10388;52.314;7.938;2022-08-19T05:20:41;11.43;;;8.20;;
20458;SDS011;10388;52.314;7.938;2022-08-19T05:23:30;12.60;;;9.27;;
20458;SDS011;10388;52.314;7.938;2022-08-19T05:26:01;10.07;;;7.90;;
20458;SDS011;10388;52.314;7.938;2022-08-19T05:28:32;9.23;;;8.07;;
20458;SDS011;10388;52.314;7.938;2022-08-19T05:31:02;10.37;;;8.40;;
20458;SDS011;10388;52.314;7.938;2022-08-19T05:33:33;8.93;;;8.03;;
20458;SDS011;10388;52.314;7.938;2022-08-19T05:36:03;11.10;;;8.37;;
20458;SDS011;10388;52.314;7.938;2022-08-19T05:38:34;11.90;;;8.37;;
20458;SDS011;10388;52.314;7.938;2022-08-19T05:41:06;12.60;;;8.50;;
20458;SDS011;10388;52.314;7.938;2022-08-19T05:43:38;13.73;;;8.97;;
20458;SDS011;10388;52.314;7.938;2022-08-19T05:46:15;11.23;;;9.40;;
20458;SDS011;10388;52.314;7.938;2022-08-19T05:48:48;16.27;;;11.80;;
20458;SDS011;10388;52.314;7.938;2022-08-19T05:51:19;17.10;;;12.27;;
20458;SDS011;10388;52.314;7.938;2022-08-19T05:53:50;16.00;;;12.03;;
20458;SDS011;10388;52.314;7.938;2022-08-19T05:56:21;15.30;;;11.80;;
20458;SDS011;10388;52.314;7.938;2022-08-19T05:58:51;12.27;;;10.33;;
20458;SDS011;10388;52.314;7.938;2022-08-19T06:01:24;15.07;;;11.87;;
20458;SDS011;10388;52.314;7.938;2022-08-19T06:03:55;14.43;;;11.97;;
20458;SDS011;10388;52.314;7.938;2022-08-19T06:06:26;14.90;;;12.60;;
20458;SDS011;10388;52.314;7.938;2022-08-19T06:08:57;16.03;;;12.53;;
20458;SDS011;10388;52.314;7.938;2022-08-19T06:14:07;13.50;;;11.37;;
20458;SDS011;10388;52.314;7.938;2022-08-19T06:16:40;14.83;;;11.67;;
20458;SDS011;10388;52.314;7.938;2022-08-19T06:19:13;13.53;;;11.43;;
20458;SDS011;10388;52.314;7.938;2022-08-19T06:21:47;14.37;;;10.43;;
20458;SDS011;10388;52.314;7.938;2022-08-19T06:24:21;13.37;;;10.83;;
20458;SDS011;10388;52.314;7.938;2022-08-19T06:26:54;12.90;;;10.60;;
20458;SDS011;10388;52.314;7.938;2022-08-19T06:29:26;15.13;;;10.07;;
20458;SDS011;10388;52.314;7.938;2022-08-19T06:31:58;15.13;;;10.77;;
20458;SDS011;10388;52.314;7.938;2022-08-19T06:34:31;14.30;;;10.13;;
20458;SDS011;10388;52.314;7.938;2022-08-19T06:37:03;12.37;;;10.20;;
20458;SDS011;10388;52.314;7.938;2022-08-19T06:39:39;13.87;;;9.83;;
20458;SDS011;10388;52.314;7.938;2022-08-19T06:42:11;15.23;;;9.73;;
20458;SDS011;10388;52.314;7.938;2022-08-19T06:44:46;12.67;;;9.30;;
20458;SDS011;10388;52.314;7.938;2022-08-19T06:47:20;11.10;;;9.43;;
20458;SDS011;10388;52.314;7.938;2022-08-19T06:49:53;9.57;;;8.57;;
20458;SDS011;10388;52.314;7.938;2022-08-19T06:52:33;9.37;;;7.73;;
20458;SDS011;10388;52.314;7.938;2022-08-19T06:55:05;9.77;;;7.97;;
20458;SDS011;10388;52.314;7.938;2022-08-19T06:57:36;10.13;;;7.90;;
20458;SDS011;10388;52.314;7.938;2022-08-19T07:00:07;9.50;;;7.57;;
20458;SDS011;10388;52.314;7.938;2022-08-19T07:02:43;10.33;;;7.33;;
20458;SDS011;10388;52.314;7.938;2022-08-19T07:05:14;6.97;;;6.27;;
20458;SDS011;10388;52.314;7.938;2022-08-19T07:07:45;10.73;;;6.53;;
20458;SDS011;10388;52.314;7.938;2022-08-19T07:10:16;7.93;;;5.80;;
20458;SDS011;10388;52.314;7.938;2022-08-19T07:12:47;6.73;;;5.20;;
20458;SDS011;10388;52.314;7.938;2022-08-19T07:15:19;8.07;;;4.30;;
20458;SDS011;10388;52.314;7.938;2022-08-19T07:17:51;7.37;;;4.90;;
20458;SDS011;10388;52.314;7.938;2022-08-19T07:20:21;7.53;;;4.67;;
20458;SDS011;10388;52.314;7.938;2022-08-19T07:22:53;5.37;;;4.63;;
20458;SDS011;10388;52.314;7.938;2022-08-19T07:25:24;6.17;;;4.53;;
20458;SDS011;10388;52.314;7.938;2022-08-19T07:27:54;7.70;;;4.60;;
20458;SDS011;10388;52.314;7.938;2022-08-19T07:30:25;5.87;;;4.30;;
20458;SDS011;10388;52.314;7.938;2022-08-19T07:32:56;6.20;;;4.13;;
20458;SDS011;10388;52.314;7.938;2022-08-19T07:35:26;5.40;;;4.07;;
20458;SDS011;10388;52.314;7.938;2022-08-19T07:37:58;6.43;;;4.23;;
20458;SDS011;10388;52.314;7.938;2022-08-19T07:40:32;6.57;;;4.77;;
20458;SDS011;10388;52.314;7.938;2022-08-19T07:43:02;12.87;;;4.07;;
20458;SDS011;10388;52.314;7.938;2022-08-19T07:45:33;4.40;;;4.00;;
20458;SDS011;10388;52.314;7.938;2022-08-19T07:48:04;5.97;;;3.77;;
20458;SDS011;10388;52.314;7.938;2022-08-19T07:50:34;5.87;;;3.97;;
20458;SDS011;10388;52.314;7.938;2022-08-19T07:53:05;7.80;;;3.63;;
20458;SDS011;10388;52.314;7.938;2022-08-19T07:55:35;6.07;;;3.57;;
20458;SDS011;10388;52.314;7.938;2022-08-19T07:58:06;4.50;;;3.33;;
20458;SDS011;10388;52.314;7.938;2022-08-19T08:00:37;3.50;;;2.73;;
20458;SDS011;10388;52.314;7.938;2022-08-19T08:03:08;5.57;;;3.40;;
20458;SDS011;10388;52.314;7.938;2022-08-19T08:05:39;3.33;;;3.03;;
20458;SDS011;10388;52.314;7.938;2022-08-19T08:08:28;6.33;;;3.20;;
20458;SDS011;10388;52.314;7.938;2022-08-19T08:11:18;4.57;;;3.10;;
20458;SDS011;10388;52.314;7.938;2022-08-19T08:13:50;4.67;;;3.03;;
20458;SDS011;10388;52.314;7.938;2022-08-19T08:16:21;4.30;;;3.53;;
20458;SDS011;10388;52.314;7.938;2022-08-19T08:18:51;5.37;;;2.63;;
20458;SDS011;10388;52.314;7.938;2022-08-19T08:21:22;3.63;;;2.43;;
20458;SDS011;10388;52.314;7.938;2022-08-19T08:23:52;4.23;;;2.40;;
20458;SDS011;10388;52.314;7.938;2022-08-19T08:26:25;3.70;;;2.60;;
20458;SDS011;10388;52.314;7.938;2022-08-19T08:28:56;5.77;;;2.53;;
20458;SDS011;10388;52.314;7.938;2022-08-19T08:31:26;4.00;;;2.83;;
20458;SDS011;10388;52.314;7.938;2022-08-19T08:33:57;2.40;;;2.20;;
20458;SDS011;10388;52.314;7.938;2022-08-19T08:36:28;2.90;;;2.70;;
20458;SDS011;10388;52.314;7.938;2022-08-19T08:39:03;6.93;;;3.40;;
20458;SDS011;10388;52.314;7.938;2022-08-19T08:41:37;3.43;;;2.50;;
20458;SDS011;10388;52.314;7.938;2022-08-19T08:44:46;5.03;;;2.60;;
20458;SDS011;10388;52.314;7.938;2022-08-19T08:47:20;6.67;;;2.80;;
20458;SDS011;10388;52.314;7.938;2022-08-19T08:49:57;3.30;;;2.70;;
20458;SDS011;10388;52.314;7.938;2022-08-19T08:52:36;7.97;;;3.50;;
20458;SDS011;10388;52.314;7.938;2022-08-19T08:55:16;3.13;;;2.80;;
20458;SDS011;10388;52.314;7.938;2022-08-19T09:00:39;2.73;;;2.53;;
20458;SDS011;10388;52.314;7.938;2022-08-19T09:03:19;3.83;;;3.53;;
20458;SDS011;10388;52.314;7.938;2022-08-19T09:06:12;3.10;;;2.80;;
20458;SDS011;10388;52.314;7.938;2022-08-19T09:08:52;4.23;;;3.37;;
20458;SDS011;10388;52.314;7.938;2022-08-19T09:14:46;5.53;;;3.80;;
20458;SDS011;10388;52.314;7.938;2022-08-19T09:17:18;3.43;;;3.13;;
20458;SDS011;10388;52.314;7.938;2022-08-19T09:19:59;3.90;;;3.30;;
20458;SDS011;10388;52.314;7.938;2022-08-19T09:22:37;4.60;;;3.60;;
20458;SDS011;10388;52.314;7.938;2022-08-19T09:25:08;4.70;;;3.17;;
20458;SDS011;10388;52.314;7.938;2022-08-19T09:27:41;4.03;;;3.33;;
20458;SDS011;10388;52.314;7.938;2022-08-19T09:30:21;5.40;;;3.97;;
20458;SDS011;10388;52.314;7.938;2022-08-19T09:32:57;4.60;;;3.30;;
20458;SDS011;10388;52.314;7.938;2022-08-19T09:35:29;3.50;;;2.60;;
20458;SDS011;10388;52.314;7.938;2022-08-19T09:38:01;4.37;;;2.90;;
20458;SDS011;10388;52.314;7.938;2022-08-19T09:40:32;4.53;;;3.23;;
20458;SDS011;10388;52.314;7.938;2022-08-19T09:43:02;3.47;;;2.70;;
20458;SDS011;10388;52.314;7.938;2022-08-19T09:45:34;4.97;;;3.17;;
20458;SDS011;10388;52.314;7.938;2022-08-19T09:48:05;3.60;;;2.60;;
20458;SDS011;10388;52.314;7.938;2022-08-19T09:50:36;3.60;;;3.30;;
20458;SDS011;10388;52.314;7.938;2022-08-19T09:53:08;5.10;;;3.50;;
20458;SDS011;10388;52.314;7.938;2022-08-19T09:55:42;3.53;;;3.23;;
20458;SDS011;10388;52.314;7.938;2022-08-19T09:58:13;3.60;;;3.30;;
20458;SDS011;10388;52.314;7.938;2022-08-19T10:00:43;6.13;;;3.10;;
20458;SDS011;10388;52.314;7.938;2022-08-19T10:03:15;4.43;;;2.90;;
20458;SDS011;10388;52.314;7.938;2022-08-19T10:05:46;3.33;;;3.03;;
20458;SDS011;10388;52.314;7.938;2022-08-19T10:08:21;3.60;;;2.63;;
20458;SDS011;10388;52.314;7.938;2022-08-19T10:10:54;3.13;;;2.40;;
20458;SDS011;10388;52.314;7.938;2022-08-19T10:13:26;3.30;;;2.73;;
20458;SDS011;10388;52.314;7.938;2022-08-19T10:16:04;2.70;;;2.17;;
20458;SDS011;10388;52.314;7.938;2022-08-19T10:18:37;2.93;;;2.10;;
20458;SDS011;10388;52.314;7.938;2022-08-19T10:21:09;2.57;;;2.20;;
20458;SDS011;10388;52.314;7.938;2022-08-19T10:23:43;2.70;;;2.20;;
20458;SDS011;10388;52.314;7.938;2022-08-19T10:26:16;2.50;;;2.30;;
20458;SDS011;10388;52.314;7.938;2022-08-19T10:28:50;3.37;;;2.30;;
20458;SDS011;10388;52.314;7.938;2022-08-19T10:31:22;1.97;;;1.73;;
20458;SDS011;10388;52.314;7.938;2022-08-19T10:33:56;4.47;;;2.30;;
20458;SDS011;10388;52.314;7.938;2022-08-19T10:36:29;2.10;;;1.90;;
20458;SDS011;10388;52.314;7.938;2022-08-19T10:39:04;2.47;;;1.50;;
20458;SDS011;10388;52.314;7.938;2022-08-19T10:41:37;3.13;;;1.70;;
20458;SDS011;10388;52.314;7.938;2022-08-19T10:44:10;2.17;;;1.53;;
20458;SDS011;10388;52.314;7.938;2022-08-19T10:46:42;3.40;;;1.50;;
20458;SDS011;10388;52.314;7.938;2022-08-19T10:49:16;2.57;;;1.63;;
20458;SDS011;10388;52.314;7.938;2022-08-19T10:51:49;3.87;;;2.10;;
20458;SDS011;10388;52.314;7.938;2022-08-19T10:54:38;2.13;;;1.80;;
20458;SDS011;10388;52.314;7.938;2022-08-19T10:57:30;1.70;;;1.60;;
20458;SDS011;10388;52.314;7.938;2022-08-19T11:00:01;3.23;;;2.23;;
20458;SDS011;10388;52.314;7.938;2022-08-19T11:02:32;2.80;;;2.30;;
20458;SDS011;10388;52.314;7.938;2022-08-19T11:05:03;2.63;;;2.00;;
20458;SDS011;10388;52.314;7.938;2022-08-19T11:07:34;3.40;;;1.97;;
20458;SDS011;10388;52.314;7.938;2022-08-19T11:10:05;3.90;;;2.20;;
20458;SDS011;10388;52.314;7.938;2022-08-19T11:12:37;2.27;;;2.07;;
20458;SDS011;10388;52.314;7.938;2022-08-19T11:15:09;6.67;;;2.33;;
20458;SDS011;10388;52.314;7.938;2022-08-19T11:17:41;3.20;;;1.93;;
20458;SDS011;10388;52.314;7.938;2022-08-19T11:20:13;3.10;;;2.07;;
20458;SDS011;10388;52.314;7.938;2022-08-19T11:22:44;2.20;;;1.90;;
20458;SDS011;10388;52.314;7.938;2022-08-19T11:25:15;3.17;;;2.30;;
20458;SDS011;10388;52.314;7.938;2022-08-19T11:27:46;2.10;;;1.90;;
20458;SDS011;10388;52.314;7.938;2022-08-19T11:30:20;4.97;;;2.50;;
20458;SDS011;10388;52.314;7.938;2022-08-19T11:32:51;2.17;;;1.90;;
20458;SDS011;10388;52.314;7.938;2022-08-19T11:35:22;4.60;;;2.10;;
20458;SDS011;10388;52.314;7.938;2022-08-19T11:37:53;3.10;;;1.93;;
20458;SDS011;10388;52.314;7.938;2022-08-19T11:40:23;2.63;;;1.87;;
20458;SDS011;10388;52.314;7.938;2022-08-19T11:42:54;4.13;;;2.30;;
20458;SDS011;10388;52.314;7.938;2022-08-19T11:45:26;3.17;;;2.10;;
20458;SDS011;10388;52.314;7.938;2022-08-19T11:47:59;2.27;;;1.90;;
20458;SDS011;10388;52.314;7.938;2022-08-19T11:50:29;2.90;;;2.20;;
20458;SDS011;10388;52.314;7.938;2022-08-19T11:53:00;3.20;;;2.10;;
20458;SDS011;10388;52.314;7.938;2022-08-19T11:55:30;2.90;;;2.27;;
20458;SDS011;10388;52.314;7.938;2022-08-19T11:58:01;3.80;;;2.03;;
20458;SDS011;10388;52.314;7.938;2022-08-19T12:00:32;3.00;;;2.70;;
20458;SDS011;10388;52.314;7.938;2022-08-19T12:03:05;2.93;;;1.70;;
20458;SDS011;10388;52.314;7.938;2022-08-19T12:05:36;2.23;;;1.97;;
20458;SDS011;10388;52.314;7.938;2022-08-19T12:08:08;2.43;;;2.00;;
20458;SDS011;10388;52.314;7.938;2022-08-19T12:10:39;2.30;;;1.83;;
20458;SDS011;10388;52.314;7.938;2022-08-19T12:13:12;1.80;;;1.70;;
20458;SDS011;10388;52.314;7.938;2022-08-19T12:15:48;2.43;;;2.20;;
20458;SDS011;10388;52.314;7.938;2022-08-19T12:18:19;1.77;;;1.67;;
20458;SDS011;10388;52.314;7.938;2022-08-19T12:20:50;4.83;;;2.00;;
20458;SDS011;10388;52.314;7.938;2022-08-19T12:23:22;2.43;;;1.80;;
20458;SDS011;10388;52.314;7.938;2022-08-19T12:25:53;3.13;;;2.30;;
20458;SDS011;10388;52.314;7.938;2022-08-19T12:28:24;3.70;;;1.87;;
20458;SDS011;10388;52.314;7.938;2022-08-19T12:30:55;2.47;;;1.80;;
20458;SDS011;10388;52.314;7.938;2022-08-19T12:33:26;2.97;;;1.70;;
20458;SDS011;10388;52.314;7.938;2022-08-19T12:36:02;3.47;;;1.87;;
20458;SDS011;10388;52.314;7.938;2022-08-19T12:38:35;2.00;;;1.80;;
20458;SDS011;10388;52.314;7.938;2022-08-19T12:41:08;2.27;;;1.57;;
20458;SDS011;10388;52.314;7.938;2022-08-19T12:43:40;3.10;;;2.10;;
20458;SDS011;10388;52.314;7.938;2022-08-19T12:46:11;1.90;;;1.80;;
20458;SDS011;10388;52.314;7.938;2022-08-19T12:48:42;1.77;;;1.57;;
20458;SDS011;10388;52.314;7.938;2022-08-19T12:51:15;2.17;;;1.97;;
20458;SDS011;10388;52.314;7.938;2022-08-19T12:53:48;2.20;;;2.00;;
20458;SDS011;10388;52.314;7.938;2022-08-19T12:56:19;2.33;;;1.70;;
20458;SDS011;10388;52.314;7.938;2022-08-19T12:58:50;2.07;;;1.87;;
20458;SDS011;10388;52.314;7.938;2022-08-19T13:01:20;3.90;;;2.00;;
20458;SDS011;10388;52.314;7.938;2022-08-19T13:03:51;3.10;;;2.07;;
20458;SDS011;10388;52.314;7.938;2022-08-19T13:06:25;2.70;;;2.20;;
20458;SDS011;10388;52.314;7.938;2022-08-19T13:08:56;4.37;;;2.10;;
20458;SDS011;10388;52.314;7.938;2022-08-19T13:11:26;2.57;;;1.77;;
20458;SDS011;10388;52.314;7.938;2022-08-19T13:14:02;2.27;;;2.10;;
20458;SDS011;10388;52.314;7.938;2022-08-19T13:16:33;2.70;;;1.90;;
20458;SDS011;10388;52.314;7.938;2022-08-19T13:19:04;1.97;;;1.70;;
20458;SDS011;10388;52.314;7.938;2022-08-19T13:21:35;2.90;;;2.27;;
20458;SDS011;10388;52.314;7.938;2022-08-19T13:24:06;2.90;;;1.97;;
20458;SDS011;10388;52.314;7.938;2022-08-19T13:26:36;2.03;;;1.83;;
20458;SDS011;10388;52.314;7.938;2022-08-19T13:29:07;2.77;;;2.10;;
20458;SDS011;10388;52.314;7.938;2022-08-19T13:31:56;2.23;;;2.03;;
20458;SDS011;10388;52.314;7.938;2022-08-19T13:34:46;2.53;;;1.83;;
20458;SDS011;10388;52.314;7.938;2022-08-19T13:37:17;2.67;;;2.00;;
20458;SDS011;10388;52.314;7.938;2022-08-19T13:40:28;1.93;;;1.83;;
20458;SDS011;10388;52.314;7.938;2022-08-19T13:43:00;3.53;;;2.27;;
20458;SDS011;10388;52.314;7.938;2022-08-19T13:45:32;3.43;;;2.33;;
20458;SDS011;10388;52.314;7.938;2022-08-19T13:48:04;2.27;;;1.97;;
20458;SDS011;10388;52.314;7.938;2022-08-19T13:50:41;2.50;;;2.17;;
20458;SDS011;10388;52.314;7.938;2022-08-19T13:53:13;2.67;;;2.10;;
20458;SDS011;10388;52.314;7.938;2022-08-19T13:55:44;3.00;;;2.40;;
20458;SDS011;10388;52.314;7.938;2022-08-19T13:58:15;3.10;;;2.10;;
20458;SDS011;10388;52.314;7.938;2022-08-19T14:00:46;2.20;;;1.97;;
20458;SDS011;10388;52.314;7.938;2022-08-19T14:03:16;3.97;;;2.20;;
20458;SDS011;10388;52.314;7.938;2022-08-19T14:05:47;2.60;;;2.20;;
20458;SDS011;10388;52.314;7.938;2022-08-19T14:08:17;6.60;;;2.63;;
20458;SDS011;10388;52.314;7.938;2022-08-19T14:10:48;2.50;;;2.10;;
20458;SDS011;10388;52.314;7.938;2022-08-19T14:13:20;2.43;;;2.23;;
20458;SDS011;10388;52.314;7.938;2022-08-19T14:15:52;2.60;;;1.70;;
20458;SDS011;10388;52.314;7.938;2022-08-19T14:18:23;2.50;;;2.07;;
20458;SDS011;10388;52.314;7.938;2022-08-19T14:20:54;2.40;;;2.20;;
20458;SDS011;10388;52.314;7.938;2022-08-19T14:23:26;4.23;;;3.43;;
20458;SDS011;10388;52.314;7.938;2022-08-19T14:26:04;2.40;;;2.20;;
20458;SDS011;10388;52.314;7.938;2022-08-19T14:28:39;2.47;;;2.27;;
20458;SDS011;10388;52.314;7.938;2022-08-19T14:31:14;3.17;;;2.20;;
20458;SDS011;10388;52.314;7.938;2022-08-19T14:33:48;2.80;;;2.40;;
20458;SDS011;10388;52.314;7.938;2022-08-19T14:36:20;2.33;;;2.13;;
20458;SDS011;10388;52.314;7.938;2022-08-19T14:38:51;2.33;;;2.10;;
20458;SDS011;10388;52.314;7.938;2022-08-19T14:41:22;2.83;;;2.63;;
20458;SDS011;10388;52.314;7.938;2022-08-19T14:43:53;4.60;;;2.37;;
20458;SDS011;10388;52.314;7.938;2022-08-19T14:46:25;2.70;;;2.40;;
20458;SDS011;10388;52.314;7.938;2022-08-19T14:48:56;3.83;;;2.63;;
20458;SDS011;10388;52.314;7.938;2022-08-19T14:51:27;2.63;;;2.43;;
20458;SDS011;10388;52.314;7.938;2022-08-19T14:53:58;3.00;;;2.80;;
20458;SDS011;10388;52.314;7.938;2022-08-19T14:56:29;3.10;;;2.80;;
20458;SDS011;10388;52.314;7.938;2022-08-19T14:59:00;3.47;;;2.70;;
20458;SDS011;10388;52.314;7.938;2022-08-19T15:01:31;3.30;;;2.60;;
20458;SDS011;10388;52.314;7.938;2022-08-19T15:04:01;4.00;;;2.80;;
20458;SDS011;10388;52.314;7.938;2022-08-19T15:06:32;2.90;;;2.70;;
20458;SDS011;10388;52.314;7.938;2022-08-19T15:09:03;4.83;;;3.00;;
20458;SDS011;10388;52.314;7.938;2022-08-19T15:11:34;3.27;;;2.63;;
20458;SDS011;10388;52.314;7.938;2022-08-19T15:14:06;6.70;;;3.17;;
20458;SDS011;10388;52.314;7.938;2022-08-19T15:16:37;4.60;;;3.03;;
20458;SDS011;10388;52.314;7.938;2022-08-19T15:19:13;3.33;;;3.03;;
20458;SDS011;10388;52.314;7.938;2022-08-19T15:21:43;3.50;;;2.93;;
20458;SDS011;10388;52.314;7.938;2022-08-19T15:24:14;3.33;;;2.70;;
20458;SDS011;10388;52.314;7.938;2022-08-19T15:26:45;3.30;;;3.00;;
20458;SDS011;10388;52.314;7.938;2022-08-19T15:29:15;3.50;;;3.20;;
20458;SDS011;10388;52.314;7.938;2022-08-19T15:31:46;2.87;;;2.67;;
20458;SDS011;10388;52.314;7.938;2022-08-19T15:34:17;3.33;;;3.03;;
20458;SDS011;10388;52.314;7.938;2022-08-19T15:36:48;6.43;;;3.27;;
20458;SDS011;10388;52.314;7.938;2022-08-19T15:39:19;3.20;;;3.00;;
20458;SDS011;10388;52.314;7.938;2022-08-19T15:41:50;3.40;;;3.10;;
20458;SDS011;10388;52.314;7.938;2022-08-19T15:44:20;3.30;;;3.00;;
20458;SDS011;10388;52.314;7.938;2022-08-19T15:46:51;3.77;;;3.13;;
20458;SDS011;10388;52.314;7.938;2022-08-19T15:49:22;3.83;;;3.50;;
20458;SDS011;10388;52.314;7.938;2022-08-19T15:51:52;3.60;;;3.27;;
20458;SDS011;10388;52.314;7.938;2022-08-19T15:54:26;5.47;;;3.33;;
20458;SDS011;10388;52.314;7.938;2022-08-19T15:56:57;3.50;;;3.20;;
20458;SDS011;10388;52.314;7.938;2022-08-19T15:59:46;6.93;;;3.60;;
20458;SDS011;10388;52.314;7.938;2022-08-19T16:02:36;6.23;;;3.50;;
20458;SDS011;10388;52.314;7.938;2022-08-19T16:05:25;4.17;;;3.10;;
20458;SDS011;10388;52.314;7.938;2022-08-19T16:08:14;3.50;;;3.20;;
20458;SDS011;10388;52.314;7.938;2022-08-19T16:10:45;4.13;;;3.27;;
20458;SDS011;10388;52.314;7.938;2022-08-19T16:13:16;4.07;;;3.03;;
20458;SDS011;10388;52.314;7.938;2022-08-19T16:15:47;5.83;;;3.10;;
20458;SDS011;10388;52.314;7.938;2022-08-19T16:18:17;3.33;;;2.93;;
20458;SDS011;10388;52.314;7.938;2022-08-19T16:20:48;6.63;;;3.50;;
20458;SDS011;10388;52.314;7.938;2022-08-19T16:23:18;8.80;;;3.20;;
20458;SDS011;10388;52.314;7.938;2022-08-19T16:25:49;4.03;;;3.17;;
20458;SDS011;10388;52.314;7.938;2022-08-19T16:28:19;3.40;;;3.10;;
20458;SDS011;10388;52.314;7.938;2022-08-19T16:30:51;3.60;;;3.20;;
20458;SDS011;10388;52.314;7.938;2022-08-19T16:33:22;3.00;;;2.80;;
20458;SDS011;10388;52.314;7.938;2022-08-19T16:35:52;3.63;;;3.20;;
20458;SDS011;10388;52.314;7.938;2022-08-19T16:38:23;4.60;;;3.50;;
20458;SDS011;10388;52.314;7.938;2022-08-19T16:40:54;4.03;;;3.43;;
20458;SDS011;10388;52.314;7.938;2022-08-19T16:43:27;4.33;;;3.23;;
20458;SDS011;10388;52.314;7.938;2022-08-19T16:46:00;3.60;;;3.10;;
20458;SDS011;10388;52.314;7.938;2022-08-19T16:48:31;3.77;;;3.33;;
20458;SDS011;10388;52.314;7.938;2022-08-19T16:51:02;4.67;;;3.67;;
20458;SDS011;10388;52.314;7.938;2022-08-19T16:53:35;3.90;;;3.60;;
20458;SDS011;10388;52.314;7.938;2022-08-19T16:56:08;4.60;;;3.30;;
20458;SDS011;10388;52.314;7.938;2022-08-19T16:58:38;3.63;;;3.33;;
20458;SDS011;10388;52.314;7.938;2022-08-19T17:01:09;4.20;;;3.40;;
20458;SDS011;10388;52.314;7.938;2022-08-19T17:03:40;3.80;;;3.47;;
20458;SDS011;10388;52.314;7.938;2022-08-19T17:06:29;4.87;;;3.57;;
20458;SDS011;10388;52.314;7.938;2022-08-19T17:09:02;3.60;;;3.30;;
20458;SDS011;10388;52.314;7.938;2022-08-19T17:11:35;4.13;;;3.70;;
20458;SDS011;10388;52.314;7.938;2022-08-19T17:14:06;4.67;;;3.60;;